sensor_id;sensor_type;location;lat;lon;timestamp;P1;durP1;ratioP1;P2;durP2;ratioP2
8574;SDS011;4325;42.520;27.448;2023-11-21T00:01:32;14.90;;;9.10;;
8574;SDS011;4325;42.520;27.448;2023-11-21T00:03:59;14.33;;;9.17;;
8574;SDS011;4325;42.520;27.448;2023-11-21T00:06:26;13.67;;;9.20;;
8574;SDS011;4325;42.520;27.448;2023-11-21T00:08:55;15.83;;;9.77;;
8574;SDS011;4325;42.520;27.448;2023-11-21T00:11:22;16.10;;;10.80;;
8574;SDS011;4325;42.520;27.448;2023-11-21T00:13:50;20.67;;;12.20;;
8574;SDS011;4325;42.520;27.448;2023-11-21T00:16:17;19.47;;;15.40;;
8574;SDS011;4325;42.520;27.448;2023-11-21T00:18:46;11.47;;;9.00;;
8574;SDS011;4325;42.520;27.448;2023-11-21T00:21:13;15.77;;;11.03;;
8574;SDS011;4325;42.520;27.448;2023-11-21T00:23:40;11.30;;;7.47;;
8574;SDS011;4325;42.520;27.448;2023-11-21T00:26:06;9.63;;;6.60;;
8574;SDS011;4325;42.520;27.448;2023-11-21T00:28:33;17.10;;;11.63;;
8574;SDS011;4325;42.520;27.448;2023-11-21T00:31:00;20.63;;;15.20;;
8574;SDS011;4325;42.520;27.448;2023-11-21T00:33:27;18.53;;;11.83;;
8574;SDS011;4325;42.520;27.448;2023-11-21T00:35:56;25.07;;;11.50;;
8574;SDS011;4325;42.520;27.448;2023-11-21T00:38:23;21.50;;;12.20;;
8574;SDS011;4325;42.520;27.448;2023-11-21T00:40:49;11.47;;;7.00;;
8574;SDS011;4325;42.520;27.448;2023-11-21T00:43:18;9.20;;;5.77;;
8574;SDS011;4325;42.520;27.448;2023-11-21T00:45:45;9.30;;;6.20;;
8574;SDS011;4325;42.520;27.448;2023-11-21T00:48:14;9.53;;;5.77;;
8574;SDS011;4325;42.520;27.448;2023-11-21T00:50:41;8.27;;;4.70;;
8574;SDS011;4325;42.520;27.448;2023-11-21T00:53:09;7.57;;;5.40;;
8574;SDS011;4325;42.520;27.448;2023-11-21T00:55:37;9.13;;;6.27;;
8574;SDS011;4325;42.520;27.448;2023-11-21T00:58:05;8.47;;;5.27;;
8574;SDS011;4325;42.520;27.448;2023-11-21T01:00:32;7.63;;;4.80;;
8574;SDS011;4325;42.520;27.448;2023-11-21T01:02:59;6.27;;;4.20;;
8574;SDS011;4325;42.520;27.448;2023-11-21T01:05:27;7.70;;;5.37;;
8574;SDS011;4325;42.520;27.448;2023-11-21T01:07:54;7.47;;;4.67;;
8574;SDS011;4325;42.520;27.448;2023-11-21T01:10:23;7.87;;;4.73;;
8574;SDS011;4325;42.520;27.448;2023-11-21T01:12:50;6.73;;;4.60;;
8574;SDS011;4325;42.520;27.448;2023-11-21T01:15:17;5.90;;;4.50;;
8574;SDS011;4325;42.520;27.448;2023-11-21T01:17:43;7.50;;;5.03;;
8574;SDS011;4325;42.520;27.448;2023-11-21T01:20:11;15.50;;;11.17;;
8574;SDS011;4325;42.520;27.448;2023-11-21T01:22:38;12.33;;;9.33;;
8574;SDS011;4325;42.520;27.448;2023-11-21T01:25:05;18.57;;;13.03;;
8574;SDS011;4325;42.520;27.448;2023-11-21T01:27:34;12.03;;;9.03;;
8574;SDS011;4325;42.520;27.448;2023-11-21T01:30:02;12.83;;;8.43;;
8574;SDS011;4325;42.520;27.448;2023-11-21T01:32:29;9.53;;;7.33;;
8574;SDS011;4325;42.520;27.448;2023-11-21T01:34:56;14.90;;;10.63;;
8574;SDS011;4325;42.520;27.448;2023-11-21T01:37:24;16.53;;;9.73;;
8574;SDS011;4325;42.520;27.448;2023-11-21T01:39:53;15.40;;;10.80;;
8574;SDS011;4325;42.520;27.448;2023-11-21T01:42:20;11.73;;;8.87;;
8574;SDS011;4325;42.520;27.448;2023-11-21T01:44:48;11.83;;;9.17;;
8574;SDS011;4325;42.520;27.448;2023-11-21T01:47:15;14.70;;;10.27;;
8574;SDS011;4325;42.520;27.448;2023-11-21T01:49:43;9.83;;;7.70;;
8574;SDS011;4325;42.520;27.448;2023-11-21T01:52:11;15.93;;;8.97;;
8574;SDS011;4325;42.520;27.448;2023-11-21T01:54:39;12.67;;;7.37;;
8574;SDS011;4325;42.520;27.448;2023-11-21T01:57:07;8.83;;;6.93;;
8574;SDS011;4325;42.520;27.448;2023-11-21T01:59:35;12.57;;;7.87;;
8574;SDS011;4325;42.520;27.448;2023-11-21T02:02:04;9.40;;;6.37;;
8574;SDS011;4325;42.520;27.448;2023-11-21T02:04:32;11.10;;;7.13;;
8574;SDS011;4325;42.520;27.448;2023-11-21T02:06:59;9.07;;;6.40;;
8574;SDS011;4325;42.520;27.448;2023-11-21T02:09:27;10.13;;;6.73;;
8574;SDS011;4325;42.520;27.448;2023-11-21T02:11:55;9.53;;;6.33;;
8574;SDS011;4325;42.520;27.448;2023-11-21T02:14:23;9.50;;;6.03;;
8574;SDS011;4325;42.520;27.448;2023-11-21T02:16:52;9.03;;;6.90;;
8574;SDS011;4325;42.520;27.448;2023-11-21T02:19:21;14.90;;;8.93;;
8574;SDS011;4325;42.520;27.448;2023-11-21T02:21:49;17.17;;;8.57;;
8574;SDS011;4325;42.520;27.448;2023-11-21T02:24:19;15.63;;;8.27;;
8574;SDS011;4325;42.520;27.448;2023-11-21T02:26:46;11.77;;;6.90;;
8574;SDS011;4325;42.520;27.448;2023-11-21T02:29:16;8.97;;;5.90;;
8574;SDS011;4325;42.520;27.448;2023-11-21T02:31:44;9.70;;;6.60;;
8574;SDS011;4325;42.520;27.448;2023-11-21T02:34:14;15.30;;;6.63;;
8574;SDS011;4325;42.520;27.448;2023-11-21T02:36:41;8.10;;;5.83;;
8574;SDS011;4325;42.520;27.448;2023-11-21T02:39:08;12.43;;;6.23;;
8574;SDS011;4325;42.520;27.448;2023-11-21T02:41:37;19.93;;;9.97;;
8574;SDS011;4325;42.520;27.448;2023-11-21T02:44:05;22.23;;;10.70;;
8574;SDS011;4325;42.520;27.448;2023-11-21T02:46:32;14.73;;;6.90;;
8574;SDS011;4325;42.520;27.448;2023-11-21T02:49:00;14.90;;;8.03;;
8574;SDS011;4325;42.520;27.448;2023-11-21T02:54:13;13.67;;;6.33;;
8574;SDS011;4325;42.520;27.448;2023-11-21T02:56:43;8.60;;;5.57;;
8574;SDS011;4325;42.520;27.448;2023-11-21T02:59:11;8.87;;;5.40;;
8574;SDS011;4325;42.520;27.448;2023-11-21T03:01:38;7.60;;;4.83;;
8574;SDS011;4325;42.520;27.448;2023-11-21T03:04:05;7.90;;;4.30;;
8574;SDS011;4325;42.520;27.448;2023-11-21T03:06:32;7.30;;;5.00;;
8574;SDS011;4325;42.520;27.448;2023-11-21T03:08:59;5.73;;;3.93;;
8574;SDS011;4325;42.520;27.448;2023-11-21T03:11:26;7.73;;;4.83;;
8574;SDS011;4325;42.520;27.448;2023-11-21T03:13:54;7.87;;;4.33;;
8574;SDS011;4325;42.520;27.448;2023-11-21T03:16:21;4.87;;;4.07;;
8574;SDS011;4325;42.520;27.448;2023-11-21T03:18:48;5.13;;;3.33;;
8574;SDS011;4325;42.520;27.448;2023-11-21T03:21:16;6.77;;;3.90;;
8574;SDS011;4325;42.520;27.448;2023-11-21T03:23:43;6.20;;;3.83;;
8574;SDS011;4325;42.520;27.448;2023-11-21T03:26:11;6.77;;;4.73;;
8574;SDS011;4325;42.520;27.448;2023-11-21T03:28:38;8.83;;;5.50;;
8574;SDS011;4325;42.520;27.448;2023-11-21T03:31:07;8.00;;;5.40;;
8574;SDS011;4325;42.520;27.448;2023-11-21T03:33:34;9.63;;;5.40;;
8574;SDS011;4325;42.520;27.448;2023-11-21T03:36:01;8.63;;;5.87;;
8574;SDS011;4325;42.520;27.448;2023-11-21T03:38:29;10.07;;;6.83;;
8574;SDS011;4325;42.520;27.448;2023-11-21T03:40:55;8.90;;;5.50;;
8574;SDS011;4325;42.520;27.448;2023-11-21T03:43:22;10.87;;;6.70;;
8574;SDS011;4325;42.520;27.448;2023-11-21T03:45:49;10.73;;;6.83;;
8574;SDS011;4325;42.520;27.448;2023-11-21T03:48:18;13.90;;;8.40;;
8574;SDS011;4325;42.520;27.448;2023-11-21T03:50:45;12.70;;;7.40;;
8574;SDS011;4325;42.520;27.448;2023-11-21T03:53:13;14.53;;;7.37;;
8574;SDS011;4325;42.520;27.448;2023-11-21T03:55:40;9.93;;;6.90;;
8574;SDS011;4325;42.520;27.448;2023-11-21T03:58:07;10.43;;;6.57;;
8574;SDS011;4325;42.520;27.448;2023-11-21T04:00:33;9.20;;;6.00;;
8574;SDS011;4325;42.520;27.448;2023-11-21T04:03:00;11.03;;;6.03;;
8574;SDS011;4325;42.520;27.448;2023-11-21T04:05:29;11.13;;;8.10;;
8574;SDS011;4325;42.520;27.448;2023-11-21T04:07:56;11.33;;;7.07;;
8574;SDS011;4325;42.520;27.448;2023-11-21T04:10:23;10.40;;;6.30;;
8574;SDS011;4325;42.520;27.448;2023-11-21T04:12:50;11.23;;;6.53;;
8574;SDS011;4325;42.520;27.448;2023-11-21T04:15:17;11.17;;;6.63;;
8574;SDS011;4325;42.520;27.448;2023-11-21T04:17:44;9.37;;;6.57;;
8574;SDS011;4325;42.520;27.448;2023-11-21T04:20:11;12.33;;;6.70;;
8574;SDS011;4325;42.520;27.448;2023-11-21T04:22:40;9.40;;;6.23;;
8574;SDS011;4325;42.520;27.448;2023-11-21T04:25:08;12.33;;;6.93;;
8574;SDS011;4325;42.520;27.448;2023-11-21T04:27:36;13.83;;;7.40;;
8574;SDS011;4325;42.520;27.448;2023-11-21T04:30:03;12.27;;;8.17;;
8574;SDS011;4325;42.520;27.448;2023-11-21T04:32:31;18.27;;;10.07;;
8574;SDS011;4325;42.520;27.448;2023-11-21T04:34:58;19.87;;;10.63;;
8574;SDS011;4325;42.520;27.448;2023-11-21T04:37:25;19.13;;;10.83;;
8574;SDS011;4325;42.520;27.448;2023-11-21T04:39:54;18.23;;;9.23;;
8574;SDS011;4325;42.520;27.448;2023-11-21T04:42:21;21.33;;;10.27;;
8574;SDS011;4325;42.520;27.448;2023-11-21T04:44:48;17.37;;;8.60;;
8574;SDS011;4325;42.520;27.448;2023-11-21T04:47:15;14.00;;;8.07;;
8574;SDS011;4325;42.520;27.448;2023-11-21T04:49:45;12.10;;;7.87;;
8574;SDS011;4325;42.520;27.448;2023-11-21T04:52:13;13.43;;;8.17;;
8574;SDS011;4325;42.520;27.448;2023-11-21T04:54:45;13.57;;;8.43;;
8574;SDS011;4325;42.520;27.448;2023-11-21T04:57:13;13.90;;;8.03;;
8574;SDS011;4325;42.520;27.448;2023-11-21T04:59:43;13.00;;;8.20;;
8574;SDS011;4325;42.520;27.448;2023-11-21T05:02:10;15.00;;;8.60;;
8574;SDS011;4325;42.520;27.448;2023-11-21T05:04:37;12.03;;;7.70;;
8574;SDS011;4325;42.520;27.448;2023-11-21T05:07:04;11.97;;;7.67;;
8574;SDS011;4325;42.520;27.448;2023-11-21T05:09:31;13.63;;;8.30;;
8574;SDS011;4325;42.520;27.448;2023-11-21T05:11:58;13.40;;;8.27;;
8574;SDS011;4325;42.520;27.448;2023-11-21T05:14:26;13.67;;;8.07;;
8574;SDS011;4325;42.520;27.448;2023-11-21T05:16:54;13.80;;;7.80;;
8574;SDS011;4325;42.520;27.448;2023-11-21T05:19:21;12.90;;;6.97;;
8574;SDS011;4325;42.520;27.448;2023-11-21T05:21:48;11.83;;;6.20;;
8574;SDS011;4325;42.520;27.448;2023-11-21T05:24:15;9.63;;;6.27;;
8574;SDS011;4325;42.520;27.448;2023-11-21T05:26:42;10.53;;;7.03;;
8574;SDS011;4325;42.520;27.448;2023-11-21T05:29:09;11.87;;;6.77;;
8574;SDS011;4325;42.520;27.448;2023-11-21T05:31:37;10.17;;;6.10;;
8574;SDS011;4325;42.520;27.448;2023-11-21T05:34:05;16.20;;;6.80;;
8574;SDS011;4325;42.520;27.448;2023-11-21T05:36:31;13.23;;;6.60;;
8574;SDS011;4325;42.520;27.448;2023-11-21T05:38:59;12.60;;;6.97;;
8574;SDS011;4325;42.520;27.448;2023-11-21T05:41:26;15.20;;;9.27;;
8574;SDS011;4325;42.520;27.448;2023-11-21T05:43:53;21.97;;;9.80;;
8574;SDS011;4325;42.520;27.448;2023-11-21T05:46:20;25.27;;;12.53;;
8574;SDS011;4325;42.520;27.448;2023-11-21T05:48:48;30.03;;;15.10;;
8574;SDS011;4325;42.520;27.448;2023-11-21T05:51:15;26.90;;;13.37;;
8574;SDS011;4325;42.520;27.448;2023-11-21T05:53:42;22.50;;;12.37;;
8574;SDS011;4325;42.520;27.448;2023-11-21T05:56:09;23.07;;;12.83;;
8574;SDS011;4325;42.520;27.448;2023-11-21T05:58:36;20.83;;;12.97;;
8574;SDS011;4325;42.520;27.448;2023-11-21T06:01:05;34.43;;;22.77;;
8574;SDS011;4325;42.520;27.448;2023-11-21T06:03:34;40.47;;;28.00;;
8574;SDS011;4325;42.520;27.448;2023-11-21T06:06:03;51.17;;;31.33;;
8574;SDS011;4325;42.520;27.448;2023-11-21T06:08:30;68.23;;;36.00;;
8574;SDS011;4325;42.520;27.448;2023-11-21T06:10:57;61.13;;;34.70;;
8574;SDS011;4325;42.520;27.448;2023-11-21T06:13:24;64.93;;;31.50;;
8574;SDS011;4325;42.520;27.448;2023-11-21T06:15:51;46.03;;;26.80;;
8574;SDS011;4325;42.520;27.448;2023-11-21T06:18:18;34.93;;;19.87;;
8574;SDS011;4325;42.520;27.448;2023-11-21T06:20:45;38.90;;;17.70;;
8574;SDS011;4325;42.520;27.448;2023-11-21T06:23:14;33.03;;;16.50;;
8574;SDS011;4325;42.520;27.448;2023-11-21T06:25:41;38.10;;;18.87;;
8574;SDS011;4325;42.520;27.448;2023-11-21T06:28:08;25.60;;;13.03;;
8574;SDS011;4325;42.520;27.448;2023-11-21T06:30:35;28.33;;;14.07;;
8574;SDS011;4325;42.520;27.448;2023-11-21T06:33:03;20.60;;;11.77;;
8574;SDS011;4325;42.520;27.448;2023-11-21T06:35:31;19.80;;;10.27;;
8574;SDS011;4325;42.520;27.448;2023-11-21T06:38:00;14.93;;;8.23;;
8574;SDS011;4325;42.520;27.448;2023-11-21T06:40:29;12.80;;;6.80;;
8574;SDS011;4325;42.520;27.448;2023-11-21T06:42:56;13.00;;;8.37;;
8574;SDS011;4325;42.520;27.448;2023-11-21T06:45:24;10.83;;;6.23;;
8574;SDS011;4325;42.520;27.448;2023-11-21T06:47:51;8.53;;;6.30;;
8574;SDS011;4325;42.520;27.448;2023-11-21T06:50:20;9.60;;;6.53;;
8574;SDS011;4325;42.520;27.448;2023-11-21T06:52:47;8.67;;;5.60;;
8574;SDS011;4325;42.520;27.448;2023-11-21T06:55:14;9.27;;;5.53;;
8574;SDS011;4325;42.520;27.448;2023-11-21T06:57:43;8.87;;;5.80;;
8574;SDS011;4325;42.520;27.448;2023-11-21T07:00:12;12.50;;;6.20;;
8574;SDS011;4325;42.520;27.448;2023-11-21T07:02:42;10.23;;;5.73;;
8574;SDS011;4325;42.520;27.448;2023-11-21T07:05:09;6.20;;;4.87;;
8574;SDS011;4325;42.520;27.448;2023-11-21T07:07:36;6.40;;;4.40;;
8574;SDS011;4325;42.520;27.448;2023-11-21T07:10:04;7.33;;;4.97;;
8574;SDS011;4325;42.520;27.448;2023-11-21T07:12:31;8.57;;;4.87;;
8574;SDS011;4325;42.520;27.448;2023-11-21T07:15:00;11.40;;;6.53;;
8574;SDS011;4325;42.520;27.448;2023-11-21T07:17:27;8.83;;;7.20;;
8574;SDS011;4325;42.520;27.448;2023-11-21T07:19:53;11.47;;;6.90;;
8574;SDS011;4325;42.520;27.448;2023-11-21T07:22:20;8.00;;;6.03;;
8574;SDS011;4325;42.520;27.448;2023-11-21T07:24:48;5.53;;;4.80;;
8574;SDS011;4325;42.520;27.448;2023-11-21T07:27:16;7.57;;;5.23;;
8574;SDS011;4325;42.520;27.448;2023-11-21T07:29:43;6.73;;;4.73;;
8574;SDS011;4325;42.520;27.448;2023-11-21T07:32:12;5.90;;;4.50;;
8574;SDS011;4325;42.520;27.448;2023-11-21T07:34:40;10.07;;;6.43;;
8574;SDS011;4325;42.520;27.448;2023-11-21T07:37:08;10.00;;;5.93;;
8574;SDS011;4325;42.520;27.448;2023-11-21T07:39:35;11.50;;;5.00;;
8574;SDS011;4325;42.520;27.448;2023-11-21T07:42:02;6.07;;;4.70;;
8574;SDS011;4325;42.520;27.448;2023-11-21T07:44:30;6.77;;;4.60;;
8574;SDS011;4325;42.520;27.448;2023-11-21T07:46:56;6.30;;;5.33;;
8574;SDS011;4325;42.520;27.448;2023-11-21T07:49:25;6.27;;;4.53;;
8574;SDS011;4325;42.520;27.448;2023-11-21T07:51:52;8.40;;;5.60;;
8574;SDS011;4325;42.520;27.448;2023-11-21T07:54:19;10.17;;;6.30;;
8574;SDS011;4325;42.520;27.448;2023-11-21T07:56:46;16.17;;;6.20;;
8574;SDS011;4325;42.520;27.448;2023-11-21T07:59:13;7.77;;;5.50;;
8574;SDS011;4325;42.520;27.448;2023-11-21T08:01:40;8.30;;;5.77;;
8574;SDS011;4325;42.520;27.448;2023-11-21T08:04:08;14.13;;;5.33;;
8574;SDS011;4325;42.520;27.448;2023-11-21T08:06:36;11.40;;;6.03;;
8574;SDS011;4325;42.520;27.448;2023-11-21T08:09:03;8.00;;;5.63;;
8574;SDS011;4325;42.520;27.448;2023-11-21T08:11:30;9.67;;;5.10;;
8574;SDS011;4325;42.520;27.448;2023-11-21T08:13:58;7.83;;;5.80;;
8574;SDS011;4325;42.520;27.448;2023-11-21T08:16:25;17.43;;;5.80;;
8574;SDS011;4325;42.520;27.448;2023-11-21T08:18:52;15.07;;;6.07;;
8574;SDS011;4325;42.520;27.448;2023-11-21T08:21:19;14.23;;;5.53;;
8574;SDS011;4325;42.520;27.448;2023-11-21T08:23:50;13.73;;;7.10;;
8574;SDS011;4325;42.520;27.448;2023-11-21T08:26:19;8.87;;;6.20;;
8574;SDS011;4325;42.520;27.448;2023-11-21T08:28:46;20.70;;;7.00;;
8574;SDS011;4325;42.520;27.448;2023-11-21T08:31:13;19.23;;;6.83;;
8574;SDS011;4325;42.520;27.448;2023-11-21T08:33:44;13.20;;;8.77;;
8574;SDS011;4325;42.520;27.448;2023-11-21T08:36:11;12.03;;;7.40;;
8574;SDS011;4325;42.520;27.448;2023-11-21T08:38:38;13.07;;;6.87;;
8574;SDS011;4325;42.520;27.448;2023-11-21T08:41:07;10.97;;;6.77;;
8574;SDS011;4325;42.520;27.448;2023-11-21T08:43:34;13.13;;;5.93;;
8574;SDS011;4325;42.520;27.448;2023-11-21T08:46:05;15.67;;;6.20;;
8574;SDS011;4325;42.520;27.448;2023-11-21T08:48:34;8.90;;;6.03;;
8574;SDS011;4325;42.520;27.448;2023-11-21T08:51:01;15.43;;;5.87;;
8574;SDS011;4325;42.520;27.448;2023-11-21T08:53:29;12.03;;;5.63;;
8574;SDS011;4325;42.520;27.448;2023-11-21T08:55:56;9.80;;;6.30;;
8574;SDS011;4325;42.520;27.448;2023-11-21T08:58:25;14.60;;;6.37;;
8574;SDS011;4325;42.520;27.448;2023-11-21T09:00:52;10.97;;;5.73;;
8574;SDS011;4325;42.520;27.448;2023-11-21T09:03:18;16.40;;;6.90;;
8574;SDS011;4325;42.520;27.448;2023-11-21T09:05:45;9.40;;;6.70;;
8574;SDS011;4325;42.520;27.448;2023-11-21T09:08:12;9.27;;;6.13;;
8574;SDS011;4325;42.520;27.448;2023-11-21T09:10:39;10.93;;;6.37;;
8574;SDS011;4325;42.520;27.448;2023-11-21T09:13:08;15.37;;;7.13;;
8574;SDS011;4325;42.520;27.448;2023-11-21T09:15:36;11.47;;;7.07;;
8574;SDS011;4325;42.520;27.448;2023-11-21T09:18:04;10.37;;;6.93;;
8574;SDS011;4325;42.520;27.448;2023-11-21T09:20:31;11.33;;;6.13;;
8574;SDS011;4325;42.520;27.448;2023-11-21T09:22:58;13.57;;;6.37;;
8574;SDS011;4325;42.520;27.448;2023-11-21T09:25:25;12.77;;;6.63;;
8574;SDS011;4325;42.520;27.448;2023-11-21T09:27:54;12.77;;;7.33;;
8574;SDS011;4325;42.520;27.448;2023-11-21T09:30:22;10.47;;;6.43;;
8574;SDS011;4325;42.520;27.448;2023-11-21T09:32:51;11.13;;;6.73;;
8574;SDS011;4325;42.520;27.448;2023-11-21T09:35:18;11.47;;;6.50;;
8574;SDS011;4325;42.520;27.448;2023-11-21T09:37:45;12.93;;;5.90;;
8574;SDS011;4325;42.520;27.448;2023-11-21T09:40:12;6.73;;;6.03;;
8574;SDS011;4325;42.520;27.448;2023-11-21T09:42:43;8.63;;;6.40;;
8574;SDS011;4325;42.520;27.448;2023-11-21T09:45:17;19.07;;;6.77;;
8574;SDS011;4325;42.520;27.448;2023-11-21T09:47:52;7.83;;;5.73;;
8574;SDS011;4325;42.520;27.448;2023-11-21T09:50:19;8.90;;;6.30;;
8574;SDS011;4325;42.520;27.448;2023-11-21T09:52:49;7.63;;;5.63;;
8574;SDS011;4325;42.520;27.448;2023-11-21T09:55:26;11.43;;;5.83;;
8574;SDS011;4325;42.520;27.448;2023-11-21T09:57:55;7.50;;;5.97;;
8574;SDS011;4325;42.520;27.448;2023-11-21T10:00:23;8.83;;;6.80;;
8574;SDS011;4325;42.520;27.448;2023-11-21T10:02:55;11.63;;;6.77;;
8574;SDS011;4325;42.520;27.448;2023-11-21T10:05:24;9.90;;;6.57;;
8574;SDS011;4325;42.520;27.448;2023-11-21T10:07:51;8.43;;;6.28;;
8574;SDS011;4325;42.520;27.448;2023-11-21T10:10:20;8.32;;;6.55;;
8574;SDS011;4325;42.520;27.448;2023-11-21T10:12:48;8.13;;;7.32;;
8574;SDS011;4325;42.520;27.448;2023-11-21T10:15:18;9.07;;;6.30;;
8574;SDS011;4325;42.520;27.448;2023-11-21T10:17:48;7.10;;;6.43;;
8574;SDS011;4325;42.520;27.448;2023-11-21T10:20:19;6.47;;;5.77;;
8574;SDS011;4325;42.520;27.448;2023-11-21T10:22:46;7.60;;;6.80;;
8574;SDS011;4325;42.520;27.448;2023-11-21T10:25:14;11.43;;;8.80;;
8574;SDS011;4325;42.520;27.448;2023-11-21T10:27:42;10.17;;;7.17;;
8574;SDS011;4325;42.520;27.448;2023-11-21T10:30:09;11.83;;;7.40;;
8574;SDS011;4325;42.520;27.448;2023-11-21T10:32:39;9.57;;;6.53;;
8574;SDS011;4325;42.520;27.448;2023-11-21T10:35:08;7.77;;;7.00;;
8574;SDS011;4325;42.520;27.448;2023-11-21T10:37:37;10.00;;;5.67;;
8574;SDS011;4325;42.520;27.448;2023-11-21T10:40:06;8.35;;;6.53;;
8574;SDS011;4325;42.520;27.448;2023-11-21T10:42:34;7.82;;;5.88;;
8574;SDS011;4325;42.520;27.448;2023-11-21T10:45:01;9.20;;;5.57;;
8574;SDS011;4325;42.520;27.448;2023-11-21T10:47:35;6.75;;;5.05;;
8574;SDS011;4325;42.520;27.448;2023-11-21T10:50:02;6.65;;;4.63;;
8574;SDS011;4325;42.520;27.448;2023-11-21T10:52:30;7.13;;;4.20;;
8574;SDS011;4325;42.520;27.448;2023-11-21T10:55:00;8.80;;;4.13;;
8574;SDS011;4325;42.520;27.448;2023-11-21T10:57:28;4.00;;;3.30;;
8574;SDS011;4325;42.520;27.448;2023-11-21T10:59:57;4.57;;;2.92;;
8574;SDS011;4325;42.520;27.448;2023-11-21T11:02:24;5.13;;;3.83;;
8574;SDS011;4325;42.520;27.448;2023-11-21T11:04:53;6.25;;;3.75;;
8574;SDS011;4325;42.520;27.448;2023-11-21T11:07:21;6.55;;;4.40;;
8574;SDS011;4325;42.520;27.448;2023-11-21T11:09:51;5.40;;;3.60;;
8574;SDS011;4325;42.520;27.448;2023-11-21T11:12:20;5.28;;;2.83;;
8574;SDS011;4325;42.520;27.448;2023-11-21T11:14:47;3.10;;;2.80;;
8574;SDS011;4325;42.520;27.448;2023-11-21T11:17:15;8.98;;;3.03;;
8574;SDS011;4325;42.520;27.448;2023-11-21T11:19:45;8.52;;;3.13;;
8574;SDS011;4325;42.520;27.448;2023-11-21T11:22:16;6.03;;;3.03;;
8574;SDS011;4325;42.520;27.448;2023-11-21T11:25:02;4.47;;;3.20;;
8574;SDS011;4325;42.520;27.448;2023-11-21T11:27:46;4.70;;;4.30;;
8574;SDS011;4325;42.520;27.448;2023-11-21T11:30:22;6.40;;;4.40;;
8574;SDS011;4325;42.520;27.448;2023-11-21T11:33:06;4.97;;;4.10;;
8574;SDS011;4325;42.520;27.448;2023-11-21T11:35:42;5.10;;;4.38;;
8574;SDS011;4325;42.520;27.448;2023-11-21T11:38:20;4.75;;;4.25;;
8574;SDS011;4325;42.520;27.448;2023-11-21T11:40:47;4.55;;;4.05;;
8574;SDS011;4325;42.520;27.448;2023-11-21T11:43:25;5.05;;;4.30;;
8574;SDS011;4325;42.520;27.448;2023-11-21T11:45:55;6.45;;;4.85;;
8574;SDS011;4325;42.520;27.448;2023-11-21T11:48:24;5.53;;;4.93;;
8574;SDS011;4325;42.520;27.448;2023-11-21T11:51:04;6.43;;;4.80;;
8574;SDS011;4325;42.520;27.448;2023-11-21T11:53:37;12.75;;;4.70;;
8574;SDS011;4325;42.520;27.448;2023-11-21T11:56:22;8.25;;;5.25;;
8574;SDS011;4325;42.520;27.448;2023-11-21T11:58:53;12.68;;;4.40;;
8574;SDS011;4325;42.520;27.448;2023-11-21T12:01:21;10.65;;;4.60;;
8574;SDS011;4325;42.520;27.448;2023-11-21T12:06:56;6.55;;;4.15;;
8574;SDS011;4325;42.520;27.448;2023-11-21T12:09:25;6.38;;;4.65;;
8574;SDS011;4325;42.520;27.448;2023-11-21T12:11:53;3.65;;;2.97;;
8574;SDS011;4325;42.520;27.448;2023-11-21T12:14:23;9.83;;;4.20;;
8574;SDS011;4325;42.520;27.448;2023-11-21T12:16:50;6.87;;;3.27;;
8574;SDS011;4325;42.520;27.448;2023-11-21T12:19:18;7.60;;;3.17;;
8574;SDS011;4325;42.520;27.448;2023-11-21T12:21:47;5.13;;;3.90;;
8574;SDS011;4325;42.520;27.448;2023-11-21T12:24:15;6.07;;;3.43;;
8574;SDS011;4325;42.520;27.448;2023-11-21T12:26:43;3.60;;;3.07;;
8574;SDS011;4325;42.520;27.448;2023-11-21T12:29:10;4.10;;;3.03;;
8574;SDS011;4325;42.520;27.448;2023-11-21T12:31:39;6.20;;;2.77;;
8574;SDS011;4325;42.520;27.448;2023-11-21T12:34:06;3.83;;;3.10;;
8574;SDS011;4325;42.520;27.448;2023-11-21T12:36:37;4.67;;;3.53;;
8574;SDS011;4325;42.520;27.448;2023-11-21T12:39:04;9.63;;;4.20;;
8574;SDS011;4325;42.520;27.448;2023-11-21T12:41:31;8.27;;;4.33;;
8574;SDS011;4325;42.520;27.448;2023-11-21T12:43:58;12.43;;;4.30;;
8574;SDS011;4325;42.520;27.448;2023-11-21T12:46:25;9.60;;;4.40;;
8574;SDS011;4325;42.520;27.448;2023-11-21T12:48:57;7.83;;;3.37;;
8574;SDS011;4325;42.520;27.448;2023-11-21T12:51:24;7.03;;;3.70;;
8574;SDS011;4325;42.520;27.448;2023-11-21T12:53:51;6.53;;;3.60;;
8574;SDS011;4325;42.520;27.448;2023-11-21T12:56:19;3.50;;;2.83;;
8574;SDS011;4325;42.520;27.448;2023-11-21T12:58:48;8.43;;;3.50;;
8574;SDS011;4325;42.520;27.448;2023-11-21T13:01:16;11.37;;;3.70;;
8574;SDS011;4325;42.520;27.448;2023-11-21T13:03:47;9.40;;;3.80;;
8574;SDS011;4325;42.520;27.448;2023-11-21T13:06:18;12.37;;;4.50;;
8574;SDS011;4325;42.520;27.448;2023-11-21T13:08:49;7.90;;;3.83;;
8574;SDS011;4325;42.520;27.448;2023-11-21T13:11:17;8.27;;;3.80;;
8574;SDS011;4325;42.520;27.448;2023-11-21T13:13:44;9.93;;;3.50;;
8574;SDS011;4325;42.520;27.448;2023-11-21T13:16:11;6.77;;;3.80;;
8574;SDS011;4325;42.520;27.448;2023-11-21T13:18:40;8.23;;;4.17;;
8574;SDS011;4325;42.520;27.448;2023-11-21T13:21:08;8.87;;;4.23;;
8574;SDS011;4325;42.520;27.448;2023-11-21T13:23:40;11.47;;;5.17;;
8574;SDS011;4325;42.520;27.448;2023-11-21T13:26:07;7.10;;;4.47;;
8574;SDS011;4325;42.520;27.448;2023-11-21T13:28:36;14.50;;;4.30;;
8574;SDS011;4325;42.520;27.448;2023-11-21T13:31:03;8.23;;;4.33;;
8574;SDS011;4325;42.520;27.448;2023-11-21T13:33:45;14.20;;;5.30;;
8574;SDS011;4325;42.520;27.448;2023-11-21T13:36:16;12.53;;;4.93;;
8574;SDS011;4325;42.520;27.448;2023-11-21T13:38:49;10.43;;;4.27;;
8574;SDS011;4325;42.520;27.448;2023-11-21T13:41:17;9.43;;;3.80;;
8574;SDS011;4325;42.520;27.448;2023-11-21T13:43:45;4.53;;;3.87;;
8574;SDS011;4325;42.520;27.448;2023-11-21T13:46:18;13.63;;;4.17;;
8574;SDS011;4325;42.520;27.448;2023-11-21T13:48:48;8.40;;;3.57;;
8574;SDS011;4325;42.520;27.448;2023-11-21T13:51:21;6.57;;;3.70;;
8574;SDS011;4325;42.520;27.448;2023-11-21T13:53:57;7.67;;;3.50;;
8574;SDS011;4325;42.520;27.448;2023-11-21T13:56:25;6.90;;;3.80;;
8574;SDS011;4325;42.520;27.448;2023-11-21T13:58:54;8.13;;;3.93;;
8574;SDS011;4325;42.520;27.448;2023-11-21T14:01:22;6.53;;;3.40;;
8574;SDS011;4325;42.520;27.448;2023-11-21T14:04:12;5.00;;;3.30;;
8574;SDS011;4325;42.520;27.448;2023-11-21T14:06:45;7.80;;;3.70;;
8574;SDS011;4325;42.520;27.448;2023-11-21T14:09:15;6.77;;;3.10;;
8574;SDS011;4325;42.520;27.448;2023-11-21T14:11:49;7.27;;;3.47;;
8574;SDS011;4325;42.520;27.448;2023-11-21T14:14:18;5.03;;;2.60;;
8574;SDS011;4325;42.520;27.448;2023-11-21T14:16:45;4.93;;;3.10;;
8574;SDS011;4325;42.520;27.448;2023-11-21T14:19:12;3.87;;;3.27;;
8574;SDS011;4325;42.520;27.448;2023-11-21T14:21:42;4.53;;;3.57;;
8574;SDS011;4325;42.520;27.448;2023-11-21T14:24:10;6.33;;;4.60;;
8574;SDS011;4325;42.520;27.448;2023-11-21T14:26:40;6.27;;;3.63;;
8574;SDS011;4325;42.520;27.448;2023-11-21T14:29:07;4.77;;;3.47;;
8574;SDS011;4325;42.520;27.448;2023-11-21T14:31:37;6.10;;;3.60;;
8574;SDS011;4325;42.520;27.448;2023-11-21T14:34:04;5.90;;;2.80;;
8574;SDS011;4325;42.520;27.448;2023-11-21T14:36:32;4.40;;;3.50;;
8574;SDS011;4325;42.520;27.448;2023-11-21T14:38:59;8.30;;;4.20;;
8574;SDS011;4325;42.520;27.448;2023-11-21T14:41:26;11.97;;;6.90;;
8574;SDS011;4325;42.520;27.448;2023-11-21T14:43:55;9.30;;;4.77;;
8574;SDS011;4325;42.520;27.448;2023-11-21T14:46:24;14.87;;;4.77;;
8574;SDS011;4325;42.520;27.448;2023-11-21T14:48:51;8.23;;;4.17;;
8574;SDS011;4325;42.520;27.448;2023-11-21T14:51:27;10.63;;;3.80;;
8574;SDS011;4325;42.520;27.448;2023-11-21T14:53:57;9.17;;;4.30;;
8574;SDS011;4325;42.520;27.448;2023-11-21T14:56:31;8.97;;;4.37;;
8574;SDS011;4325;42.520;27.448;2023-11-21T14:59:01;6.53;;;4.17;;
8574;SDS011;4325;42.520;27.448;2023-11-21T15:01:32;5.40;;;4.30;;
8574;SDS011;4325;42.520;27.448;2023-11-21T15:04:11;7.60;;;4.10;;
8574;SDS011;4325;42.520;27.448;2023-11-21T15:06:46;6.57;;;4.97;;